sensor_id;sensor_type;location;lat;lon;timestamp;pressure;altitude;pressure_sealevel;temperature;humidity
28935;BME280;16044;52.726;-2.108;2023-07-09T00:02:23;100678.97;;;19.14;98.37
28935;BME280;16044;52.726;-2.108;2023-07-09T00:04:54;100678.38;;;19.12;97.86
28935;BME280;16044;52.726;-2.108;2023-07-09T00:07:28;100676.16;;;19.02;99.03
28935;BME280;16044;52.726;-2.108;2023-07-09T00:10:02;100658.97;;;18.88;100.00
28935;BME280;16044;52.726;-2.108;2023-07-09T00:12:33;100668.44;;;18.93;99.47
28935;BME280;16044;52.726;-2.108;2023-07-09T00:15:04;100675.47;;;18.88;99.78
28935;BME280;16044;52.726;-2.108;2023-07-09T00:17:36;100674.16;;;18.91;99.13
28935;BME280;16044;52.726;-2.108;2023-07-09T00:20:10;100668.28;;;18.87;99.44
28935;BME280;16044;52.726;-2.108;2023-07-09T00:22:44;100672.56;;;18.83;100.00
28935;BME280;16044;52.726;-2.108;2023-07-09T00:25:22;100667.88;;;18.84;100.00
28935;BME280;16044;52.726;-2.108;2023-07-09T00:27:52;100674.22;;;18.84;100.00
28935;BME280;16044;52.726;-2.108;2023-07-09T00:30:23;100678.03;;;18.83;100.00
28935;BME280;16044;52.726;-2.108;2023-07-09T00:32:54;100679.09;;;18.82;100.00
28935;BME280;16044;52.726;-2.108;2023-07-09T00:35:24;100667.06;;;18.83;100.00
28935;BME280;16044;52.726;-2.108;2023-07-09T00:37:55;100665.97;;;18.84;99.70
28935;BME280;16044;52.726;-2.108;2023-07-09T00:40:30;100659.44;;;18.79;100.00
28935;BME280;16044;52.726;-2.108;2023-07-09T00:43:00;100682.09;;;18.74;100.00
28935;BME280;16044;52.726;-2.108;2023-07-09T00:45:31;100690.78;;;18.71;99.93
28935;BME280;16044;52.726;-2.108;2023-07-09T00:48:05;100692.91;;;18.69;99.80
28935;BME280;16044;52.726;-2.108;2023-07-09T00:50:39;100697.25;;;18.58;100.00
28935;BME280;16044;52.726;-2.108;2023-07-09T00:53:16;100688.16;;;18.58;100.00
28935;BME280;16044;52.726;-2.108;2023-07-09T00:55:56;100699.38;;;18.56;99.93
28935;BME280;16044;52.726;-2.108;2023-07-09T00:58:33;100701.09;;;18.50;99.73
28935;BME280;16044;52.726;-2.108;2023-07-09T01:01:09;100698.34;;;18.50;99.07
28935;BME280;16044;52.726;-2.108;2023-07-09T01:03:45;100698.66;;;18.42;99.55
28935;BME280;16044;52.726;-2.108;2023-07-09T01:06:21;100695.06;;;18.42;99.05
28935;BME280;16044;52.726;-2.108;2023-07-09T01:08:57;100680.94;;;18.38;98.91
28935;BME280;16044;52.726;-2.108;2023-07-09T01:11:33;100691.81;;;18.26;99.68
28935;BME280;16044;52.726;-2.108;2023-07-09T01:14:07;100695.22;;;18.22;99.57
28935;BME280;16044;52.726;-2.108;2023-07-09T01:16:42;100689.09;;;18.20;99.54
28935;BME280;16044;52.726;-2.108;2023-07-09T01:19:25;100688.72;;;18.16;99.75
28935;BME280;16044;52.726;-2.108;2023-07-09T01:22:00;100683.28;;;18.09;99.86
28935;BME280;16044;52.726;-2.108;2023-07-09T01:24:49;100679.53;;;18.04;99.68
28935;BME280;16044;52.726;-2.108;2023-07-09T01:27:26;100679.97;;;18.01;99.64
28935;BME280;16044;52.726;-2.108;2023-07-09T01:29:59;100685.91;;;17.98;99.39
28935;BME280;16044;52.726;-2.108;2023-07-09T01:32:31;100692.72;;;17.88;99.87
28935;BME280;16044;52.726;-2.108;2023-07-09T01:35:03;100688.03;;;17.82;100.00
28935;BME280;16044;52.726;-2.108;2023-07-09T01:37:37;100694.19;;;17.78;100.00
28935;BME280;16044;52.726;-2.108;2023-07-09T01:40:10;100688.94;;;17.76;99.80
28935;BME280;16044;52.726;-2.108;2023-07-09T01:42:56;100687.72;;;17.65;100.00
28935;BME280;16044;52.726;-2.108;2023-07-09T01:45:28;100681.44;;;17.58;100.00
28935;BME280;16044;52.726;-2.108;2023-07-09T01:48:01;100693.88;;;17.54;100.00
28935;BME280;16044;52.726;-2.108;2023-07-09T01:50:32;100697.06;;;17.51;100.00
28935;BME280;16044;52.726;-2.108;2023-07-09T01:53:05;100694.13;;;17.46;100.00
28935;BME280;16044;52.726;-2.108;2023-07-09T01:55:35;100697.97;;;17.45;100.00
28935;BME280;16044;52.726;-2.108;2023-07-09T01:58:05;100704.91;;;17.41;100.00
28935;BME280;16044;52.726;-2.108;2023-07-09T02:00:38;100704.06;;;17.40;100.00
28935;BME280;16044;52.726;-2.108;2023-07-09T02:03:09;100701.53;;;17.39;100.00
28935;BME280;16044;52.726;-2.108;2023-07-09T02:05:40;100697.56;;;17.34;100.00
28935;BME280;16044;52.726;-2.108;2023-07-09T02:08:13;100701.16;;;17.28;100.00
28935;BME280;16044;52.726;-2.108;2023-07-09T02:10:44;100702.63;;;17.31;100.00
28935;BME280;16044;52.726;-2.108;2023-07-09T02:13:15;100716.53;;;17.29;100.00
28935;BME280;16044;52.726;-2.108;2023-07-09T02:15:46;100715.91;;;17.27;100.00
28935;BME280;16044;52.726;-2.108;2023-07-09T02:18:16;100711.28;;;17.28;100.00
28935;BME280;16044;52.726;-2.108;2023-07-09T02:20:46;100709.38;;;17.28;100.00
28935;BME280;16044;52.726;-2.108;2023-07-09T02:23:19;100713.16;;;17.27;100.00
28935;BME280;16044;52.726;-2.108;2023-07-09T02:25:49;100712.75;;;17.30;100.00
28935;BME280;16044;52.726;-2.108;2023-07-09T02:28:20;100721.19;;;17.29;100.00
28935;BME280;16044;52.726;-2.108;2023-07-09T02:30:50;100722.00;;;17.29;100.00
28935;BME280;16044;52.726;-2.108;2023-07-09T02:33:20;100719.94;;;17.25;100.00
28935;BME280;16044;52.726;-2.108;2023-07-09T02:35:51;100727.94;;;17.26;100.00
28935;BME280;16044;52.726;-2.108;2023-07-09T02:38:24;100716.16;;;17.26;100.00
28935;BME280;16044;52.726;-2.108;2023-07-09T02:40:54;100719.09;;;17.24;100.00
28935;BME280;16044;52.726;-2.108;2023-07-09T02:43:24;100713.63;;;17.24;100.00
28935;BME280;16044;52.726;-2.108;2023-07-09T02:45:54;100725.41;;;17.25;100.00
28935;BME280;16044;52.726;-2.108;2023-07-09T02:48:25;100709.19;;;17.23;100.00
28935;BME280;16044;52.726;-2.108;2023-07-09T02:50:55;100709.38;;;17.22;100.00
28935;BME280;16044;52.726;-2.108;2023-07-09T02:53:28;100708.34;;;17.23;100.00
28935;BME280;16044;52.726;-2.108;2023-07-09T02:55:59;100711.09;;;17.23;100.00
28935;BME280;16044;52.726;-2.108;2023-07-09T02:58:29;100718.47;;;17.22;100.00
28935;BME280;16044;52.726;-2.108;2023-07-09T03:01:00;100722.88;;;17.23;100.00
28935;BME280;16044;52.726;-2.108;2023-07-09T03:03:30;100716.56;;;17.16;100.00
28935;BME280;16044;52.726;-2.108;2023-07-09T03:06:01;100722.03;;;17.16;100.00
28935;BME280;16044;52.726;-2.108;2023-07-09T03:08:34;100712.59;;;17.12;100.00
28935;BME280;16044;52.726;-2.108;2023-07-09T03:11:10;100703.13;;;17.08;100.00
28935;BME280;16044;52.726;-2.108;2023-07-09T03:13:41;100716.59;;;17.09;100.00
28935;BME280;16044;52.726;-2.108;2023-07-09T03:16:13;100728.81;;;17.07;100.00
28935;BME280;16044;52.726;-2.108;2023-07-09T03:18:46;100725.44;;;17.05;100.00
28935;BME280;16044;52.726;-2.108;2023-07-09T03:21:16;100733.03;;;17.03;100.00
28935;BME280;16044;52.726;-2.108;2023-07-09T03:23:49;100724.84;;;16.96;100.00
28935;BME280;16044;52.726;-2.108;2023-07-09T03:26:19;100726.72;;;16.95;100.00
28935;BME280;16044;52.726;-2.108;2023-07-09T03:28:50;100729.69;;;16.94;100.00
28935;BME280;16044;52.726;-2.108;2023-07-09T03:31:21;100732.63;;;16.92;100.00
28935;BME280;16044;52.726;-2.108;2023-07-09T03:33:52;100726.75;;;16.89;100.00
28935;BME280;16044;52.726;-2.108;2023-07-09T03:36:22;100722.75;;;16.85;100.00
28935;BME280;16044;52.726;-2.108;2023-07-09T03:38:55;100733.91;;;16.83;100.00
28935;BME280;16044;52.726;-2.108;2023-07-09T03:41:25;100739.38;;;16.83;100.00
28935;BME280;16044;52.726;-2.108;2023-07-09T03:43:58;100754.31;;;16.81;100.00
28935;BME280;16044;52.726;-2.108;2023-07-09T03:46:30;100748.84;;;16.81;100.00
28935;BME280;16044;52.726;-2.108;2023-07-09T03:49:00;100740.63;;;16.74;100.00
28935;BME280;16044;52.726;-2.108;2023-07-09T03:51:31;100737.25;;;16.72;100.00
28935;BME280;16044;52.726;-2.108;2023-07-09T03:54:04;100737.25;;;16.72;100.00
28935;BME280;16044;52.726;-2.108;2023-07-09T03:56:35;100737.25;;;16.65;100.00
28935;BME280;16044;52.726;-2.108;2023-07-09T03:59:05;100734.75;;;16.64;100.00
28935;BME280;16044;52.726;-2.108;2023-07-09T04:01:36;100737.88;;;16.61;100.00
28935;BME280;16044;52.726;-2.108;2023-07-09T04:04:06;100746.09;;;16.61;100.00
28935;BME280;16044;52.726;-2.108;2023-07-09T04:06:36;100744.41;;;16.60;100.00
28935;BME280;16044;52.726;-2.108;2023-07-09T04:09:09;100738.94;;;16.60;100.00
28935;BME280;16044;52.726;-2.108;2023-07-09T04:11:39;100741.47;;;16.61;100.00
28935;BME280;16044;52.726;-2.108;2023-07-09T04:14:10;100734.31;;;16.53;100.00
28935;BME280;16044;52.726;-2.108;2023-07-09T04:16:40;100733.47;;;16.53;100.00
28935;BME280;16044;52.726;-2.108;2023-07-09T04:19:11;100743.13;;;16.55;100.00
28935;BME280;16044;52.726;-2.108;2023-07-09T04:21:41;100749.06;;;16.52;100.00
28935;BME280;16044;52.726;-2.108;2023-07-09T04:24:16;100744.81;;;16.50;100.00
28935;BME280;16044;52.726;-2.108;2023-07-09T04:26:47;100746.72;;;16.49;100.00
28935;BME280;16044;52.726;-2.108;2023-07-09T04:29:23;100746.53;;;16.51;100.00
28935;BME280;16044;52.726;-2.108;2023-07-09T04:31:54;100753.03;;;16.50;100.00
28935;BME280;16044;52.726;-2.108;2023-07-09T04:34:24;100749.47;;;16.49;100.00
28935;BME280;16044;52.726;-2.108;2023-07-09T04:36:54;100751.56;;;16.47;100.00
28935;BME280;16044;52.726;-2.108;2023-07-09T04:39:27;100756.19;;;16.47;100.00
28935;BME280;16044;52.726;-2.108;2023-07-09T04:42:00;100754.94;;;16.49;100.00
28935;BME280;16044;52.726;-2.108;2023-07-09T04:44:31;100746.50;;;16.44;100.00
28935;BME280;16044;52.726;-2.108;2023-07-09T04:47:04;100759.34;;;16.44;100.00
28935;BME280;16044;52.726;-2.108;2023-07-09T04:49:35;100753.03;;;16.43;100.00
28935;BME280;16044;52.726;-2.108;2023-07-09T04:52:06;100748.00;;;16.47;100.00
28935;BME280;16044;52.726;-2.108;2023-07-09T04:54:42;100756.19;;;16.47;100.00
28935;BME280;16044;52.726;-2.108;2023-07-09T04:57:13;100757.25;;;16.46;100.00
28935;BME280;16044;52.726;-2.108;2023-07-09T04:59:43;100758.31;;;16.45;100.00
28935;BME280;16044;52.726;-2.108;2023-07-09T05:02:14;100756.81;;;16.42;100.00
28935;BME280;16044;52.726;-2.108;2023-07-09T05:04:45;100766.94;;;16.48;100.00
28935;BME280;16044;52.726;-2.108;2023-07-09T05:07:15;100766.72;;;16.50;100.00
28935;BME280;16044;52.726;-2.108;2023-07-09T05:09:48;100773.88;;;16.44;100.00
28935;BME280;16044;52.726;-2.108;2023-07-09T05:12:19;100774.94;;;16.43;100.00
28935;BME280;16044;52.726;-2.108;2023-07-09T05:14:49;100767.16;;;16.47;100.00
28935;BME280;16044;52.726;-2.108;2023-07-09T05:17:20;100768.38;;;16.44;100.00
28935;BME280;16044;52.726;-2.108;2023-07-09T05:19:51;100756.41;;;16.52;100.00
28935;BME280;16044;52.726;-2.108;2023-07-09T05:22:21;100755.34;;;16.60;100.00
28935;BME280;16044;52.726;-2.108;2023-07-09T05:24:54;100746.31;;;16.66;100.00
28935;BME280;16044;52.726;-2.108;2023-07-09T05:27:24;100747.78;;;16.75;100.00
28935;BME280;16044;52.726;-2.108;2023-07-09T05:29:55;100740.84;;;16.92;100.00
28935;BME280;16044;52.726;-2.108;2023-07-09T05:32:25;100735.16;;;17.07;100.00
28935;BME280;16044;52.726;-2.108;2023-07-09T05:34:55;100750.50;;;17.15;100.00
28935;BME280;16044;52.726;-2.108;2023-07-09T05:37:26;100755.34;;;17.20;100.00
28935;BME280;16044;52.726;-2.108;2023-07-09T05:39:59;100771.34;;;17.23;100.00
28935;BME280;16044;52.726;-2.108;2023-07-09T05:42:32;100770.94;;;17.26;100.00
28935;BME280;16044;52.726;-2.108;2023-07-09T05:45:03;100773.03;;;17.30;100.00
28935;BME280;16044;52.726;-2.108;2023-07-09T05:47:34;100771.97;;;17.25;100.00
28935;BME280;16044;52.726;-2.108;2023-07-09T05:50:05;100761.00;;;17.31;100.00
28935;BME280;16044;52.726;-2.108;2023-07-09T05:52:36;100763.72;;;17.31;99.87
28935;BME280;16044;52.726;-2.108;2023-07-09T05:55:09;100773.22;;;17.36;99.80
28935;BME280;16044;52.726;-2.108;2023-07-09T05:57:40;100766.03;;;17.41;99.63
28935;BME280;16044;52.726;-2.108;2023-07-09T06:00:11;100763.72;;;17.45;99.26
28935;BME280;16044;52.726;-2.108;2023-07-09T06:02:42;100763.31;;;17.41;98.92
28935;BME280;16044;52.726;-2.108;2023-07-09T06:05:13;100748.94;;;17.46;98.60
28935;BME280;16044;52.726;-2.108;2023-07-09T06:07:44;100760.09;;;17.51;98.17
28935;BME280;16044;52.726;-2.108;2023-07-09T06:10:17;100752.09;;;17.56;98.05
28935;BME280;16044;52.726;-2.108;2023-07-09T06:12:48;100765.53;;;17.64;98.33
28935;BME280;16044;52.726;-2.108;2023-07-09T06:15:19;100768.22;;;17.78;97.69
28935;BME280;16044;52.726;-2.108;2023-07-09T06:17:50;100769.44;;;17.95;97.90
28935;BME280;16044;52.726;-2.108;2023-07-09T06:20:20;100774.84;;;18.15;97.38
28935;BME280;16044;52.726;-2.108;2023-07-09T06:22:51;100777.44;;;18.35;96.59
28935;BME280;16044;52.726;-2.108;2023-07-09T06:25:24;100781.34;;;18.53;95.55
28935;BME280;16044;52.726;-2.108;2023-07-09T06:27:54;100779.63;;;18.58;94.02
28935;BME280;16044;52.726;-2.108;2023-07-09T06:30:24;100788.81;;;18.70;93.83
28935;BME280;16044;52.726;-2.108;2023-07-09T06:32:55;100774.78;;;18.85;92.90
28935;BME280;16044;52.726;-2.108;2023-07-09T06:35:25;100772.59;;;18.94;91.80
28935;BME280;16044;52.726;-2.108;2023-07-09T06:37:55;100768.72;;;19.02;90.87
28935;BME280;16044;52.726;-2.108;2023-07-09T06:40:29;100795.59;;;19.18;91.21
28935;BME280;16044;52.726;-2.108;2023-07-09T06:42:59;100791.34;;;19.41;90.37
28935;BME280;16044;52.726;-2.108;2023-07-09T06:45:29;100788.47;;;19.54;88.97
28935;BME280;16044;52.726;-2.108;2023-07-09T06:48:00;100790.91;;;19.62;88.67
28935;BME280;16044;52.726;-2.108;2023-07-09T06:50:33;100795.94;;;19.65;88.59
28935;BME280;16044;52.726;-2.108;2023-07-09T06:53:04;100809.84;;;19.71;88.02
28935;BME280;16044;52.726;-2.108;2023-07-09T06:55:37;100806.94;;;19.65;87.70
28935;BME280;16044;52.726;-2.108;2023-07-09T06:58:07;100809.25;;;19.68;87.00
28935;BME280;16044;52.726;-2.108;2023-07-09T07:00:38;100815.94;;;19.54;86.41
28935;BME280;16044;52.726;-2.108;2023-07-09T07:03:09;100819.00;;;19.46;86.54
28935;BME280;16044;52.726;-2.108;2023-07-09T07:05:43;100822.50;;;19.35;86.64
28935;BME280;16044;52.726;-2.108;2023-07-09T07:08:16;100821.41;;;19.17;86.73
28935;BME280;16044;52.726;-2.108;2023-07-09T07:10:54;100820.63;;;19.10;87.08
28935;BME280;16044;52.726;-2.108;2023-07-09T07:13:29;100816.47;;;19.01;87.39
28935;BME280;16044;52.726;-2.108;2023-07-09T07:16:01;100812.53;;;18.90;87.62
28935;BME280;16044;52.726;-2.108;2023-07-09T07:18:33;100821.06;;;18.82;88.20
28935;BME280;16044;52.726;-2.108;2023-07-09T07:21:03;100821.47;;;18.79;88.97
28935;BME280;16044;52.726;-2.108;2023-07-09T07:23:34;100824.03;;;18.80;89.50
28935;BME280;16044;52.726;-2.108;2023-07-09T07:26:07;100836.06;;;18.79;90.05
28935;BME280;16044;52.726;-2.108;2023-07-09T07:28:38;100846.38;;;18.91;90.04
28935;BME280;16044;52.726;-2.108;2023-07-09T07:31:09;100855.34;;;19.04;90.18
28935;BME280;16044;52.726;-2.108;2023-07-09T07:33:40;100855.22;;;19.18;89.37
28935;BME280;16044;52.726;-2.108;2023-07-09T07:36:11;100846.69;;;19.26;89.00
28935;BME280;16044;52.726;-2.108;2023-07-09T07:38:45;100861.91;;;19.28;88.61
28935;BME280;16044;52.726;-2.108;2023-07-09T07:41:18;100852.56;;;19.29;88.44
28935;BME280;16044;52.726;-2.108;2023-07-09T07:43:48;100864.66;;;19.28;88.32
28935;BME280;16044;52.726;-2.108;2023-07-09T07:46:19;100876.25;;;19.31;87.13
28935;BME280;16044;52.726;-2.108;2023-07-09T07:48:49;100862.78;;;19.22;86.51
28935;BME280;16044;52.726;-2.108;2023-07-09T07:51:20;100863.84;;;19.21;86.08
28935;BME280;16044;52.726;-2.108;2023-07-09T07:53:50;100890.53;;;19.14;86.08
28935;BME280;16044;52.726;-2.108;2023-07-09T07:56:23;100890.66;;;19.01;85.28
28935;BME280;16044;52.726;-2.108;2023-07-09T07:58:53;100858.75;;;19.00;84.28
28935;BME280;16044;52.726;-2.108;2023-07-09T08:01:24;100861.75;;;18.92;84.50
28935;BME280;16044;52.726;-2.108;2023-07-09T08:03:54;100872.75;;;18.92;85.03
28935;BME280;16044;52.726;-2.108;2023-07-09T08:06:25;100892.59;;;18.94;85.17
28935;BME280;16044;52.726;-2.108;2023-07-09T08:08:58;100906.94;;;18.96;84.93
28935;BME280;16044;52.726;-2.108;2023-07-09T08:11:31;100892.88;;;18.85;85.40
28935;BME280;16044;52.726;-2.108;2023-07-09T08:14:02;100866.47;;;18.84;85.22
28935;BME280;16044;52.726;-2.108;2023-07-09T08:16:33;100849.63;;;18.74;85.35
28935;BME280;16044;52.726;-2.108;2023-07-09T08:19:04;100854.25;;;18.80;85.37
28935;BME280;16044;52.726;-2.108;2023-07-09T08:21:34;100857.59;;;18.82;85.85
28935;BME280;16044;52.726;-2.108;2023-07-09T08:24:05;100855.22;;;18.93;86.08
28935;BME280;16044;52.726;-2.108;2023-07-09T08:26:38;100844.03;;;18.94;85.73
28935;BME280;16044;52.726;-2.108;2023-07-09T08:29:09;100845.25;;;18.98;85.64
28935;BME280;16044;52.726;-2.108;2023-07-09T08:31:39;100853.19;;;19.06;85.64
28935;BME280;16044;52.726;-2.108;2023-07-09T08:34:10;100848.31;;;19.08;85.62
28935;BME280;16044;52.726;-2.108;2023-07-09T08:36:41;100849.78;;;19.11;84.53
28935;BME280;16044;52.726;-2.108;2023-07-09T08:39:11;100841.69;;;19.16;83.88
28935;BME280;16044;52.726;-2.108;2023-07-09T08:41:47;100844.66;;;19.15;83.91
28935;BME280;16044;52.726;-2.108;2023-07-09T08:44:48;100835.97;;;19.18;83.22
28935;BME280;16044;52.726;-2.108;2023-07-09T08:47:34;100833.19;;;19.24;82.46
28935;BME280;16044;52.726;-2.108;2023-07-09T08:50:14;100823.69;;;19.20;82.56
28935;BME280;16044;52.726;-2.108;2023-07-09T08:52:46;100834.53;;;19.15;82.01
28935;BME280;16044;52.726;-2.108;2023-07-09T08:55:20;100829.34;;;19.25;82.27
28935;BME280;16044;52.726;-2.108;2023-07-09T08:58:00;100833.72;;;19.33;81.09
28935;BME280;16044;52.726;-2.108;2023-07-09T09:00:35;100836.41;;;19.40;81.62
28935;BME280;16044;52.726;-2.108;2023-07-09T09:03:19;100835.59;;;19.58;82.35
28935;BME280;16044;52.726;-2.108;2023-07-09T09:05:57;100838.53;;;19.81;80.91
28935;BME280;16044;52.726;-2.108;2023-07-09T09:08:37;100843.50;;;19.91;79.50
28935;BME280;16044;52.726;-2.108;2023-07-09T09:11:16;100841.13;;;20.13;79.80
28935;BME280;16044;52.726;-2.108;2023-07-09T09:13:55;100835.25;;;20.40;79.42
28935;BME280;16044;52.726;-2.108;2023-07-09T09:16:30;100832.81;;;20.62;75.60
28935;BME280;16044;52.726;-2.108;2023-07-09T09:19:09;100835.66;;;20.97;75.89
28935;BME280;16044;52.726;-2.108;2023-07-09T09:21:48;100835.09;;;21.31;74.92
28935;BME280;16044;52.726;-2.108;2023-07-09T09:24:30;100837.28;;;21.52;72.70
28935;BME280;16044;52.726;-2.108;2023-07-09T09:27:03;100838.53;;;21.85;72.34
28935;BME280;16044;52.726;-2.108;2023-07-09T09:29:36;100835.03;;;22.02;68.68
28935;BME280;16044;52.726;-2.108;2023-07-09T09:32:19;100836.91;;;22.13;67.90
28935;BME280;16044;52.726;-2.108;2023-07-09T09:34:52;100838.69;;;22.31;68.56
28935;BME280;16044;52.726;-2.108;2023-07-09T09:37:28;100836.72;;;22.43;67.65
28935;BME280;16044;52.726;-2.108;2023-07-09T09:40:00;100835.97;;;22.48;65.64
28935;BME280;16044;52.726;-2.108;2023-07-09T09:42:34;100836.06;;;22.53;66.17
28935;BME280;16044;52.726;-2.108;2023-07-09T09:45:11;100832.31;;;22.59;65.94
28935;BME280;16044;52.726;-2.108;2023-07-09T09:47:48;100831.81;;;22.62;65.96
28935;BME280;16044;52.726;-2.108;2023-07-09T09:50:20;100833.25;;;22.65;65.93
28935;BME280;16044;52.726;-2.108;2023-07-09T09:52:52;100830.22;;;22.66;64.71
28935;BME280;16044;52.726;-2.108;2023-07-09T09:55:29;100848.50;;;22.84;66.50
28935;BME280;16044;52.726;-2.108;2023-07-09T09:58:01;100846.84;;;23.00;66.20
28935;BME280;16044;52.726;-2.108;2023-07-09T10:00:34;100839.50;;;23.06;64.89
28935;BME280;16044;52.726;-2.108;2023-07-09T10:03:05;100846.53;;;23.13;63.37
28935;BME280;16044;52.726;-2.108;2023-07-09T10:05:41;100839.16;;;23.19;61.03
28935;BME280;16044;52.726;-2.108;2023-07-09T10:08:20;100828.25;;;23.29;59.86
28935;BME280;16044;52.726;-2.108;2023-07-09T10:11:07;100827.75;;;23.32;58.61
28935;BME280;16044;52.726;-2.108;2023-07-09T10:13:43;100826.47;;;23.40;58.18
28935;BME280;16044;52.726;-2.108;2023-07-09T10:16:24;100824.38;;;23.47;57.95
28935;BME280;16044;52.726;-2.108;2023-07-09T10:19:12;100829.47;;;23.55;56.90
28935;BME280;16044;52.726;-2.108;2023-07-09T10:21:53;100822.91;;;23.62;55.60
28935;BME280;16044;52.726;-2.108;2023-07-09T10:24:44;100818.47;;;23.61;54.80
28935;BME280;16044;52.726;-2.108;2023-07-09T10:27:27;100826.06;;;23.70;55.56
28935;BME280;16044;52.726;-2.108;2023-07-09T10:30:26;100816.19;;;23.74;54.29
28935;BME280;16044;52.726;-2.108;2023-07-09T10:33:10;100811.63;;;23.85;54.96
28935;BME280;16044;52.726;-2.108;2023-07-09T10:35:49;100812.28;;;23.92;53.94
28935;BME280;16044;52.726;-2.108;2023-07-09T10:38:33;100810.16;;;24.00;53.19
28935;BME280;16044;52.726;-2.108;2023-07-09T10:41:12;100815.28;;;24.13;52.35
28935;BME280;16044;52.726;-2.108;2023-07-09T10:43:57;100812.59;;;24.18;52.11
28935;BME280;16044;52.726;-2.108;2023-07-09T10:46:35;100814.00;;;24.21;49.88
28935;BME280;16044;52.726;-2.108;2023-07-09T10:49:13;100821.00;;;24.28;50.45
28935;BME280;16044;52.726;-2.108;2023-07-09T10:51:51;100812.94;;;24.27;49.77
28935;BME280;16044;52.726;-2.108;2023-07-09T10:54:29;100809.41;;;24.31;49.74
28935;BME280;16044;52.726;-2.108;2023-07-09T10:57:08;100808.25;;;24.27;49.24
28935;BME280;16044;52.726;-2.108;2023-07-09T10:59:43;100797.53;;;24.36;49.75
28935;BME280;16044;52.726;-2.108;2023-07-09T11:02:21;100795.66;;;24.42;49.79
28935;BME280;16044;52.726;-2.108;2023-07-09T11:04:58;100794.31;;;24.44;49.11
28935;BME280;16044;52.726;-2.108;2023-07-09T11:07:32;100793.75;;;24.47;49.70
28935;BME280;16044;52.726;-2.108;2023-07-09T11:10:10;100792.94;;;24.47;49.37
28935;BME280;16044;52.726;-2.108;2023-07-09T11:12:53;100791.91;;;24.53;49.84
28935;BME280;16044;52.726;-2.108;2023-07-09T11:15:30;100784.75;;;24.57;49.27
28935;BME280;16044;52.726;-2.108;2023-07-09T11:18:06;100792.47;;;24.55;49.10
28935;BME280;16044;52.726;-2.108;2023-07-09T11:20:43;100795.13;;;24.45;47.94
28935;BME280;16044;52.726;-2.108;2023-07-09T11:23:19;100791.22;;;24.41;46.91
28935;BME280;16044;52.726;-2.108;2023-07-09T11:26:01;100799.63;;;24.51;47.22
28935;BME280;16044;52.726;-2.108;2023-07-09T11:28:34;100790.41;;;24.67;46.24
28935;BME280;16044;52.726;-2.108;2023-07-09T11:31:06;100782.78;;;24.85;47.36
28935;BME280;16044;52.726;-2.108;2023-07-09T11:33:46;100787.34;;;25.01;46.59
28935;BME280;16044;52.726;-2.108;2023-07-09T11:36:28;100781.03;;;25.11;45.06
28935;BME280;16044;52.726;-2.108;2023-07-09T11:39:00;100782.78;;;25.22;44.90
28935;BME280;16044;52.726;-2.108;2023-07-09T11:41:38;100778.66;;;25.25;43.28
28935;BME280;16044;52.726;-2.108;2023-07-09T11:44:15;100785.03;;;25.25;44.09
28935;BME280;16044;52.726;-2.108;2023-07-09T11:46:55;100785.31;;;25.24;45.00
28935;BME280;16044;52.726;-2.108;2023-07-09T11:49:34;100780.34;;;25.26;45.37
28935;BME280;16044;52.726;-2.108;2023-07-09T11:52:22;100775.66;;;25.32;44.69
28935;BME280;16044;52.726;-2.108;2023-07-09T11:54:56;100773.09;;;25.25;43.30
28935;BME280;16044;52.726;-2.108;2023-07-09T11:57:28;100777.22;;;25.22;44.17
28935;BME280;16044;52.726;-2.108;2023-07-09T12:00:00;100774.72;;;25.21;44.50
28935;BME280;16044;52.726;-2.108;2023-07-09T12:02:32;100765.38;;;25.32;44.57
28935;BME280;16044;52.726;-2.108;2023-07-09T12:05:04;100761.78;;;25.32;45.08
28935;BME280;16044;52.726;-2.108;2023-07-09T12:07:38;100768.75;;;25.39;43.61
28935;BME280;16044;52.726;-2.108;2023-07-09T12:10:18;100763.75;;;25.41;43.94
28935;BME280;16044;52.726;-2.108;2023-07-09T12:12:54;100759.88;;;25.37;43.41
28935;BME280;16044;52.726;-2.108;2023-07-09T12:15:26;100756.22;;;25.37;43.87
28935;BME280;16044;52.726;-2.108;2023-07-09T12:18:01;100752.31;;;25.27;43.26
28935;BME280;16044;52.726;-2.108;2023-07-09T12:20:35;100757.06;;;25.32;43.78
28935;BME280;16044;52.726;-2.108;2023-07-09T12:23:20;100758.44;;;25.29;43.59
28935;BME280;16044;52.726;-2.108;2023-07-09T12:25:53;100751.28;;;25.39;43.90
28935;BME280;16044;52.726;-2.108;2023-07-09T12:28:23;100753.44;;;25.32;43.95
28935;BME280;16044;52.726;-2.108;2023-07-09T12:30:57;100746.03;;;25.47;43.37
28935;BME280;16044;52.726;-2.108;2023-07-09T12:33:30;100755.25;;;25.58;44.59
28935;BME280;16044;52.726;-2.108;2023-07-09T12:36:04;100747.22;;;25.62;43.42
28935;BME280;16044;52.726;-2.108;2023-07-09T12:38:42;100750.00;;;25.67;41.73
28935;BME280;16044;52.726;-2.108;2023-07-09T12:41:19;100747.44;;;25.55;42.33
28935;BME280;16044;52.726;-2.108;2023-07-09T12:43:53;100737.22;;;25.61;43.18
28935;BME280;16044;52.726;-2.108;2023-07-09T12:46:24;100732.22;;;25.63;43.37
28935;BME280;16044;52.726;-2.108;2023-07-09T12:48:56;100736.66;;;25.59;43.09
28935;BME280;16044;52.726;-2.108;2023-07-09T12:51:29;100745.78;;;25.59;42.88
28935;BME280;16044;52.726;-2.108;2023-07-09T12:54:11;100748.28;;;25.56;43.03
28935;BME280;16044;52.726;-2.108;2023-07-09T12:56:44;100734.63;;;25.39;43.28
28935;BME280;16044;52.726;-2.108;2023-07-09T12:59:18;100733.28;;;25.46;43.52
28935;BME280;16044;52.726;-2.108;2023-07-09T13:01:55;100737.19;;;25.56;42.61
28935;BME280;16044;52.726;-2.108;2023-07-09T13:04:30;100736.06;;;25.46;41.06
28935;BME280;16044;52.726;-2.108;2023-07-09T13:07:03;100727.19;;;25.55;41.77
28935;BME280;16044;52.726;-2.108;2023-07-09T13:09:36;100723.88;;;25.63;41.96